createdAt,value
2023-01-19T04:53:47.728Z,27.58
2023-01-19T04:55:55.635Z,30.27
2023-01-19T04:58:00.265Z,28.50
2023-01-19T05:00:22.486Z,29.52
2023-01-19T05:02:26.457Z,26.52
2023-01-19T05:04:30.656Z,26.55
2023-01-19T05:06:33.878Z,28.88
2023-01-19T05:08:36.499Z,28.02
2023-01-19T05:10:39.226Z,24.70
2023-01-19T05:12:42.556Z,25.42
2023-01-19T05:14:45.319Z,25.25
2023-01-19T05:16:48.038Z,23.58
2023-01-19T05:18:50.797Z,23.20
2023-01-19T05:20:53.342Z,25.65
2023-01-19T05:22:55.936Z,26.48
2023-01-19T05:24:58.785Z,26.13
2023-01-19T05:27:01.376Z,28.50
2023-01-19T05:29:04.246Z,27.13
2023-01-19T05:31:06.937Z,30.27
2023-01-19T05:33:09.597Z,30.10
2023-01-19T05:35:13.915Z,27.88
2023-01-19T05:37:17.548Z,26.50
2023-01-19T05:39:21.476Z,27.05
2023-01-19T05:41:24.076Z,28.58
2023-01-19T05:43:27.332Z,30.00
2023-01-19T05:45:31.016Z,30.50
2023-01-19T05:47:35.426Z,29.73
2023-01-19T05:49:58.426Z,30.38
2023-01-19T05:52:04.259Z,32.22
2023-01-19T05:54:10.746Z,32.92
2023-01-19T05:56:14.937Z,35.22
2023-01-19T05:58:19.568Z,39.22
2023-01-19T06:00:24.016Z,37.70
2023-01-19T06:02:30.484Z,38.05
2023-01-19T06:04:34.596Z,38.08
2023-01-19T06:06:38.966Z,40.00
2023-01-19T06:08:43.556Z,39.95
2023-01-19T06:10:47.391Z,42.40
2023-01-19T06:12:51.748Z,42.70
2023-01-19T06:14:55.096Z,44.60
2023-01-19T06:16:59.572Z,43.85
2023-01-19T06:19:04.481Z,44.17
2023-01-19T06:21:11.481Z,42.28
2023-01-19T06:23:15.884Z,41.10
2023-01-19T06:25:20.932Z,45.63
2023-01-19T06:27:26.061Z,45.55
2023-01-19T06:29:30.076Z,44.40
2023-01-19T06:31:35.387Z,44.08
2023-01-19T06:33:46.638Z,44.17
2023-01-19T06:35:53.970Z,44.13
2023-01-19T06:37:59.573Z,43.30
2023-01-19T06:40:04.216Z,42.80
2023-01-19T06:42:08.231Z,41.88
2023-01-19T06:44:12.116Z,38.85
2023-01-19T06:46:17.163Z,37.08
2023-01-19T06:48:21.116Z,39.05
2023-01-19T06:50:25.480Z,37.72
2023-01-19T06:52:30.073Z,37.83
2023-01-19T06:54:33.957Z,37.13
2023-01-19T06:56:37.827Z,39.30
2023-01-19T06:58:43.689Z,40.70
2023-01-19T07:00:48.034Z,39.53
2023-01-19T07:02:53.788Z,43.60
2023-01-19T07:05:03.094Z,42.70
2023-01-19T07:07:07.078Z,45.35
2023-01-19T07:09:16.954Z,43.22
2023-01-19T07:11:24.921Z,47.00
2023-01-19T07:13:36.110Z,46.53
2023-01-19T07:15:40.150Z,47.78
2023-01-19T07:17:44.811Z,47.88
2023-01-19T07:19:49.747Z,46.38
2023-01-19T07:21:54.387Z,47.13
2023-01-19T07:26:27.438Z,48.72
2023-01-19T07:28:33.681Z,47.72
2023-01-19T07:30:39.037Z,50.85
2023-01-19T07:32:44.857Z,53.30
2023-01-19T07:34:51.010Z,49.78
2023-01-19T07:37:02.391Z,44.40
2023-01-19T07:39:07.178Z,41.83
2023-01-19T07:41:13.952Z,44.30
2023-01-19T07:43:19.379Z,42.78
2023-01-19T07:45:24.148Z,42.08
2023-01-19T07:47:42.047Z,40.40
2023-01-19T07:49:58.597Z,40.60
2023-01-19T07:52:03.590Z,35.67
2023-01-19T07:54:11.349Z,35.97
2023-01-19T07:56:16.297Z,33.22
2023-01-19T07:58:38.237Z,31.65
2023-01-19T08:00:42.848Z,31.83
2023-01-19T08:02:46.817Z,30.52
2023-01-19T08:04:50.716Z,29.52
2023-01-19T08:06:55.528Z,29.52
2023-01-19T08:09:00.977Z,28.98
2023-01-19T08:11:04.949Z,28.05
2023-01-19T08:13:09.512Z,30.90
2023-01-19T08:15:14.806Z,30.52
2023-01-19T08:17:21.676Z,31.13
2023-01-19T08:19:26.836Z,30.70
2023-01-19T08:21:31.918Z,31.33
2023-01-19T08:23:36.487Z,29.10
2023-01-19T08:25:54.737Z,29.67
2023-01-19T08:28:00.624Z,30.27
2023-01-19T08:30:05.782Z,31.33
2023-01-19T08:32:11.000Z,29.52
2023-01-19T08:34:15.477Z,29.08
2023-01-19T08:36:20.011Z,29.92
2023-01-19T08:38:28.477Z,31.98
2023-01-19T08:40:38.189Z,28.98
2023-01-19T08:42:42.558Z,27.23
2023-01-19T08:44:57.511Z,27.13
2023-01-19T08:47:03.005Z,27.65
2023-01-19T08:49:06.900Z,27.88
2023-01-19T08:51:11.826Z,27.00
2023-01-19T08:53:16.563Z,26.90
2023-01-19T08:55:21.113Z,24.75
2023-01-19T08:57:26.104Z,25.23
2023-01-19T08:59:31.174Z,27.13
2023-01-19T09:01:36.362Z,25.10
2023-01-19T09:03:41.696Z,24.55
2023-01-19T09:05:46.036Z,27.67
2023-01-19T09:07:50.650Z,26.60
2023-01-19T09:09:54.501Z,27.23
2023-01-19T09:11:58.430Z,25.85
2023-01-19T09:14:03.385Z,27.35
2023-01-19T09:16:10.511Z,29.95
2023-01-19T09:18:23.269Z,27.33
2023-01-19T09:20:27.796Z,30.15
2023-01-19T09:22:32.867Z,28.23
2023-01-19T09:24:36.699Z,31.40
2023-01-19T09:26:42.797Z,29.08
2023-01-19T09:28:46.611Z,30.33
2023-01-19T09:30:50.637Z,29.08
2023-01-19T09:33:08.117Z,40.17
2023-01-19T09:35:14.777Z,32.63
2023-01-19T09:37:19.137Z,30.60
2023-01-19T09:39:23.577Z,35.30
2023-01-19T09:41:27.977Z,36.92
2023-01-19T09:43:45.116Z,37.72
2023-01-19T09:46:00.921Z,37.15
2023-01-19T09:48:10.863Z,36.55
2023-01-19T09:50:49.972Z,36.40
2023-01-19T09:53:19.147Z,37.33
2023-01-19T09:55:28.449Z,39.95
2023-01-19T09:57:34.447Z,38.38
2023-01-19T09:59:38.937Z,39.50
2023-01-19T10:02:14.546Z,40.78
2023-01-19T10:04:33.809Z,43.10
2023-01-19T10:06:38.077Z,38.63
2023-01-19T10:09:08.557Z,32.35
2023-01-19T10:11:52.701Z,29.80
2023-01-19T10:13:58.869Z,32.72
2023-01-19T10:16:24.272Z,35.08
2023-01-19T10:18:37.787Z,36.25
2023-01-19T10:20:52.099Z,34.00
2023-01-19T10:23:03.385Z,35.97
2023-01-19T10:25:19.015Z,33.40
2023-01-19T10:27:30.592Z,37.20
2023-01-19T10:29:39.926Z,33.65
2023-01-19T10:31:47.860Z,32.55
2023-01-19T10:33:57.370Z,33.22
2023-01-19T10:36:01.756Z,32.17
2023-01-19T10:38:07.684Z,32.35
2023-01-19T10:40:14.959Z,31.88
2023-01-19T10:42:21.467Z,32.80
2023-01-19T10:44:31.380Z,33.83
2023-01-19T10:46:45.947Z,31.92
2023-01-19T10:48:57.370Z,33.15
2023-01-19T10:51:08.512Z,32.65
2023-01-19T10:53:28.870Z,32.53
2023-01-19T10:55:39.667Z,33.53
2023-01-19T10:57:44.968Z,33.38
2023-01-19T10:59:53.767Z,34.47
2023-01-19T11:02:20.099Z,41.00
2023-01-19T11:04:33.020Z,34.28
2023-01-19T11:06:37.775Z,37.10
2023-01-19T11:08:43.048Z,33.35
2023-01-19T11:10:56.327Z,31.05
2023-01-19T11:13:38.266Z,30.20
2023-01-19T11:16:00.228Z,30.98
2023-01-19T11:18:31.486Z,29.83
2023-01-19T11:20:49.466Z,29.60
2023-01-19T11:23:16.858Z,30.05
2023-01-19T11:25:29.887Z,34.08
2023-01-19T11:27:38.623Z,32.33
2023-01-19T11:29:48.327Z,32.42
2023-01-19T11:31:53.416Z,36.22
2023-01-19T11:33:59.887Z,32.58
2023-01-19T11:36:09.526Z,32.90
2023-01-19T11:38:24.717Z,30.83
2023-01-19T11:40:29.098Z,32.35
2023-01-19T11:42:40.616Z,33.65
2023-01-19T11:45:00.911Z,29.63
2023-01-19T11:47:07.685Z,32.40
2023-01-19T11:49:24.252Z,29.98
2023-01-19T11:51:36.424Z,31.88
2023-01-19T11:53:41.180Z,30.17
2023-01-19T11:55:54.267Z,31.98
2023-01-19T11:57:58.446Z,29.00
2023-01-19T12:00:26.002Z,31.42
2023-01-19T12:02:34.783Z,32.92
2023-01-19T12:04:44.241Z,31.02
2023-01-19T12:06:58.727Z,25.67
2023-01-19T12:09:12.637Z,29.23
2023-01-19T12:11:33.737Z,31.52
2023-01-19T12:13:38.197Z,30.33
2023-01-19T12:15:46.116Z,28.15
2023-01-19T12:17:54.546Z,39.28
2023-01-19T12:20:29.416Z,33.65
2023-01-19T12:22:38.756Z,27.95
2023-01-19T12:24:54.846Z,29.45
2023-01-19T12:27:01.396Z,28.52
2023-01-19T12:29:17.026Z,28.08
2023-01-19T12:31:26.443Z,63.13
2023-01-19T12:33:48.267Z,55.40
2023-01-19T12:36:27.266Z,52.75
2023-01-19T12:38:46.047Z,37.75
2023-01-19T12:40:50.358Z,40.90
2023-01-19T12:43:08.616Z,46.85
2023-01-19T12:45:27.287Z,56.45
2023-01-19T12:47:33.388Z,32.13
2023-01-19T12:50:16.646Z,35.03
2023-01-19T12:53:01.478Z,30.75
2023-01-19T12:55:28.416Z,34.03
2023-01-19T12:57:35.157Z,45.75
2023-01-19T12:59:41.418Z,46.22
2023-01-19T18:14:49.217Z,95.70
2023-01-19T18:16:52.500Z,99.75
2023-01-19T18:18:58.368Z,99.95
2023-01-19T18:21:04.180Z,91.75
2023-01-19T18:23:10.265Z,94.07
2023-01-19T18:25:17.971Z,92.28
2023-01-19T18:27:24.067Z,92.40
2023-01-19T18:29:29.090Z,88.32
2023-01-19T18:31:33.531Z,86.45
2023-01-19T18:33:37.208Z,85.95
2023-01-19T18:35:45.657Z,88.50
2023-01-19T18:37:50.247Z,84.97
2023-01-19T18:39:56.057Z,83.53
2023-01-19T18:41:59.805Z,84.43
2023-01-19T18:44:12.642Z,82.68
2023-01-19T18:46:19.626Z,89.25
2023-01-19T18:48:26.316Z,88.20
2023-01-19T18:50:31.297Z,84.85
2023-01-19T18:52:36.426Z,85.10
2023-01-19T18:54:40.267Z,86.45
2023-01-19T18:56:45.795Z,86.20
2023-01-19T18:58:50.189Z,87.85
2023-01-19T19:00:55.119Z,86.75
2023-01-19T19:03:01.592Z,88.15
2023-01-19T19:05:06.336Z,83.00
2023-01-19T19:07:12.597Z,88.03
2023-01-19T19:09:17.211Z,88.68
2023-01-19T19:11:23.155Z,85.72
2023-01-19T19:13:27.187Z,84.10
2023-01-19T19:15:30.689Z,87.75
2023-01-19T19:17:37.554Z,90.75
2023-01-19T19:19:41.388Z,83.60
2023-01-19T19:21:45.336Z,85.03
2023-01-19T19:24:06.987Z,81.65
2023-01-19T19:26:15.678Z,85.18
2023-01-19T19:28:22.277Z,90.05
2023-01-19T19:30:26.663Z,87.10
2023-01-19T19:32:31.599Z,88.25
2023-01-19T19:34:35.397Z,98.40
2023-01-19T19:36:39.113Z,98.07
2023-01-19T19:38:45.067Z,110.80
2023-01-19T19:40:48.789Z,105.93
2023-01-19T19:42:52.587Z,86.95
2023-01-19T19:44:56.638Z,84.28
2023-01-19T19:47:00.388Z,80.40
2023-01-19T19:49:05.327Z,79.63
2023-01-19T19:51:18.445Z,79.72
2023-01-19T19:53:23.746Z,77.78
2023-01-19T19:55:27.572Z,78.60
2023-01-19T19:57:31.920Z,73.00
2023-01-19T19:59:36.219Z,78.38
2023-01-19T20:01:40.280Z,74.03
2023-01-19T20:03:45.562Z,75.93
2023-01-19T20:05:49.907Z,77.68
2023-01-19T20:07:54.217Z,74.53
2023-01-19T20:09:57.978Z,78.57
2023-01-19T20:12:07.007Z,78.53
2023-01-19T20:14:30.818Z,80.25
2023-01-19T20:16:37.778Z,75.28
2023-01-19T20:18:46.617Z,75.22
2023-01-19T20:20:50.793Z,82.78
2023-01-19T20:22:56.828Z,80.90
2023-01-19T20:25:04.955Z,82.43
2023-01-19T20:27:07.776Z,88.72
2023-01-19T20:29:11.437Z,87.55
2023-01-19T20:31:24.119Z,90.90
2023-01-19T20:33:33.607Z,90.35
2023-01-19T20:35:40.316Z,89.78
2023-01-19T20:37:44.727Z,93.13
2023-01-19T20:39:48.045Z,94.55
2023-01-19T20:41:51.458Z,89.45
2023-01-19T20:43:54.816Z,86.03
2023-01-19T20:45:58.784Z,89.38
2023-01-19T20:48:01.356Z,84.40
2023-01-19T20:50:06.916Z,82.93
2023-01-19T20:52:09.786Z,83.57
2023-01-19T20:54:15.326Z,80.75
2023-01-19T20:56:18.337Z,75.20
2023-01-19T20:58:21.719Z,80.95
2023-01-19T21:00:25.446Z,80.03
2023-01-19T21:02:30.529Z,80.57
2023-01-19T21:04:33.280Z,75.80
2023-01-19T21:06:36.197Z,74.60
2023-01-19T21:08:44.520Z,75.30
2023-01-19T21:10:47.206Z,76.10
2023-01-19T21:12:49.817Z,76.40
2023-01-19T21:14:52.505Z,73.80
2023-01-19T21:16:58.604Z,76.97
2023-01-19T21:19:01.497Z,72.78
2023-01-19T21:21:04.104Z,70.38
2023-01-19T21:23:06.324Z,75.18
2023-01-19T21:25:09.555Z,77.10
2023-01-19T21:27:12.555Z,76.18
2023-01-19T21:29:14.999Z,78.20
2023-01-19T21:31:17.844Z,74.10
2023-01-19T21:33:21.422Z,69.63
2023-01-19T21:35:23.765Z,73.90
2023-01-19T21:37:26.415Z,70.45
2023-01-19T21:39:29.295Z,68.38
2023-01-19T21:41:34.708Z,66.78
2023-01-19T21:43:39.460Z,65.88
2023-01-19T21:45:43.185Z,66.22
2023-01-19T21:47:45.787Z,68.22
2023-01-19T21:49:48.743Z,63.60
2023-01-19T21:51:51.912Z,60.78
2023-01-19T21:53:59.913Z,60.78
2023-01-19T21:56:02.998Z,57.85
2023-01-19T21:58:06.160Z,54.88
2023-01-19T22:00:10.658Z,57.58
2023-01-19T22:02:14.427Z,56.35
2023-01-19T22:04:17.759Z,59.42
2023-01-19T22:06:20.540Z,56.33
2023-01-19T22:08:24.567Z,52.58
2023-01-19T22:10:27.126Z,53.75
2023-01-19T22:12:29.721Z,48.75
2023-01-19T22:14:32.475Z,47.67
2023-01-19T22:16:35.370Z,46.00
2023-01-19T22:18:39.672Z,44.22
2023-01-19T22:20:42.380Z,39.78
2023-01-19T22:22:45.191Z,40.45
2023-01-19T22:24:51.225Z,40.03
2023-01-19T22:26:53.748Z,39.40
2023-01-19T22:29:01.196Z,42.38
2023-01-19T22:31:12.924Z,39.17
2023-01-19T22:33:16.525Z,39.70
2023-01-19T22:35:19.523Z,37.92
2023-01-19T22:37:22.394Z,37.15
2023-01-19T22:39:24.774Z,34.75
